MRLB

Details ICAO MRLB (LIR)
Name Daniel Oduber Quiros Intl
Region Costa Rica
Timezone America/Costa_Rica (UTC-6.0)
Plans Departing 89
Arriving 124
Stats Elevation 270 ft / 82 m (AMSL)
Location 10.593400° -85.544500°
Runways 1
Magnetic Variation 1.174° W
Sunrise 2018-11-17 11:39:47 UTC / 2018-11-17 05:39:47 Local
Sunset 2018-11-17 23:17:24 UTC / 2018-11-17 17:17:24 Local
Advertisement - Login to hide

Runways

ID Width Length Bearing (true/mag) Surface Threshold Overrun Markings Lighting
07 148 ft / 45 m 9,031 ft / 2,753 m 70.05° / 71.22° ASPHALT 0 ft / 0 m 0 ft / 0 m PREC-APP CENTERLINE EDGE THRESHOLD ALSF-II
25 148 ft / 45 m 9,031 ft / 2,753 m 250.05° / 251.23° ASPHALT 0 ft / 0 m 0 ft / 0 m PREC-APP CENTERLINE EDGE THRESHOLD ALSF-II

Map

Weather


0- 5 10 15 20 25 30 35+ Temperature / °C

Clouds and Precipitation
Forecast for 2018-11-17 18:00 UTC. Updated 6 minutes ago

Ground ~20,000 ft ~40,000 ft Winds

METAR

MRLB 171500Z 03005KT 9999 FEW045 30/23 A2988 NOSIG

TAF

TAF TAF MRLB 170500Z 1706/1806 09010KT 9999 FEW040 TX33/1720Z TN22/1712Z TEMPO 1706/1714 26003KT

Frequencies

Ground 121.70 MHz
Approach 119.80 MHz LIBERIA APP
Tower 118.80 MHz LIBERIA TWR
Warning: Do not use this data for real-world aviation or navigation. No guarantee of current accuracy is given.